Time;durP1;ratioP1;P1;durP2;ratioP2;P2;SDS_P1;SDS_P2;PMS_P1;PMS_P2;Temp;Humidity;BMP_temperature;BMP_pressure;BME280_temperature;BME280_humidity;BME280_pressure;Samples;Min_cycle;Max_cycle;Signal;HPM_P1;HPM_P2
2022/02/26 00:00:31;;;;;;;2.45;0.65;;;;;;;;;;4895252;29;20064;-64
2022/02/26 00:03:02;;;;;;;2.65;0.88;;;;;;;;;;4876274;29;20052;-64
2022/02/26 00:05:32;;;;;;;1.88;0.75;;;;;;;;;;4869096;29;20075;-64
2022/02/26 00:08:06;;;;;;;4.45;0.80;;;;;;;;;;4876899;29;20072;-64
2022/02/26 00:10:45;;;;;;;2.65;0.90;;;;;;;;;;4876432;29;20414;-64
2022/02/26 00:13:17;;;;;;;5.90;0.90;;;;;;;;;;4846526;29;20655;-64
2022/02/26 00:15:48;;;;;;;10.35;2.55;;;;;;;;;;4857454;29;20061;-64
2022/02/26 00:18:19;;;;;;;4.60;1.25;;;;;;;;;;4845758;29;20064;-64
2022/02/26 00:20:50;;;;;;;6.00;0.98;;;;;;;;;;4839370;29;20074;-64
2022/02/26 00:23:20;;;;;;;2.67;1.05;;;;;;;;;;4839215;29;20054;-64
2022/02/26 00:25:50;;;;;;;2.83;0.98;;;;;;;;;;4838984;29;20053;-64
2022/02/26 00:28:24;;;;;;;1.60;0.80;;;;;;;;;;4839164;29;20069;-64
2022/02/26 00:31:04;;;;;;;2.05;1.02;;;;;;;;;;4854387;29;20062;-64
2022/02/26 00:33:35;;;;;;;4.82;1.23;;;;;;;;;;4852105;29;20062;-64
2022/02/26 00:36:05;;;;;;;5.53;0.90;;;;;;;;;;4885759;29;20061;-64
2022/02/26 00:38:39;;;;;;;2.85;0.85;;;;;;;;;;4876176;29;20053;-64
2022/02/26 00:41:15;;;;;;;2.85;1.17;;;;;;;;;;4888579;29;20526;-64
2022/02/26 00:43:48;;;;;;;5.13;1.00;;;;;;;;;;4942022;29;20051;-64
2022/02/26 00:46:19;;;;;;;7.70;1.30;;;;;;;;;;4965230;28;20841;-64
2022/02/26 00:51:45;;;;;;;4.85;1.15;;;;;;;;;;5009744;28;20057;-63
2022/02/26 00:54:16;;;;;;;4.97;1.15;;;;;;;;;;5009515;28;20052;-64
2022/02/26 00:56:46;;;;;;;4.60;1.10;;;;;;;;;;5009879;28;20050;-64
2022/02/26 00:59:18;;;;;;;2.47;1.20;;;;;;;;;;5008891;28;20049;-64
2022/02/26 01:01:54;;;;;;;3.00;1.40;;;;;;;;;;4977929;28;20414;-64
2022/02/26 01:04:26;;;;;;;4.57;1.35;;;;;;;;;;4996350;28;20049;-64
2022/02/26 01:06:57;;;;;;;3.20;1.10;;;;;;;;;;5029276;28;20393;-64
2022/02/26 01:09:29;;;;;;;2.25;1.13;;;;;;;;;;4989393;28;20047;-64
2022/02/26 01:12:06;;;;;;;6.53;0.90;;;;;;;;;;4973646;28;20466;-64
2022/02/26 01:14:38;;;;;;;4.53;1.00;;;;;;;;;;4969611;28;20499;-64
2022/02/26 01:17:11;;;;;;;4.15;0.90;;;;;;;;;;4954361;28;20415;-64
2022/02/26 01:19:44;;;;;;;3.80;1.05;;;;;;;;;;4953706;28;20531;-64
2022/02/26 01:22:17;;;;;;;10.95;0.90;;;;;;;;;;4953446;28;20062;-64
2022/02/26 01:24:48;;;;;;;3.35;0.90;;;;;;;;;;4931345;29;20524;-64
2022/02/26 01:27:18;;;;;;;4.03;0.75;;;;;;;;;;4931557;29;20428;-64
2022/02/26 01:29:51;;;;;;;4.32;1.05;;;;;;;;;;4950452;28;20051;-64
2022/02/26 01:32:28;;;;;;;4.38;0.95;;;;;;;;;;4918720;29;20062;-64
2022/02/26 01:35:01;;;;;;;2.03;0.85;;;;;;;;;;4919033;29;20071;-64
2022/02/26 01:37:32;;;;;;;1.92;0.95;;;;;;;;;;4950415;29;20071;-64
2022/02/26 01:40:03;;;;;;;2.00;1.00;;;;;;;;;;4930698;29;20662;-64
2022/02/26 01:42:37;;;;;;;3.55;0.98;;;;;;;;;;4912143;29;20473;-64
2022/02/26 01:45:16;;;;;;;5.68;0.90;;;;;;;;;;4881202;29;20063;-64
2022/02/26 01:47:50;;;;;;;2.38;1.00;;;;;;;;;;4927427;29;20071;-64
2022/02/26 01:50:21;;;;;;;4.35;1.00;;;;;;;;;;4931543;29;20059;-64
2022/02/26 01:52:54;;;;;;;2.97;1.42;;;;;;;;;;4886156;29;20067;-64
2022/02/26 01:55:26;;;;;;;3.50;1.02;;;;;;;;;;4912551;29;20071;-64
2022/02/26 01:57:58;;;;;;;2.05;1.10;;;;;;;;;;4912579;29;20060;-64
2022/02/26 02:00:30;;;;;;;6.35;1.45;;;;;;;;;;4863215;29;20444;-64
2022/02/26 02:03:03;;;;;;;3.78;1.17;;;;;;;;;;4893214;29;20097;-64
2022/02/26 02:05:34;;;;;;;4.40;1.42;;;;;;;;;;4893377;29;20067;-64
2022/02/26 02:08:06;;;;;;;5.32;1.20;;;;;;;;;;4893159;29;20691;-64
2022/02/26 02:10:40;;;;;;;1.60;1.10;;;;;;;;;;4880125;29;20060;-64
2022/02/26 02:13:15;;;;;;;6.60;1.63;;;;;;;;;;4882154;29;20521;-64
2022/02/26 02:15:55;;;;;;;6.03;1.10;;;;;;;;;;4911458;29;20068;-64
2022/02/26 02:18:26;;;;;;;6.57;1.50;;;;;;;;;;4915978;29;20051;-64
2022/02/26 02:20:57;;;;;;;4.15;1.27;;;;;;;;;;4948861;28;20055;-64
2022/02/26 02:23:32;;;;;;;3.60;1.23;;;;;;;;;;4973093;28;20043;-64
2022/02/26 02:26:07;;;;;;;5.57;1.70;;;;;;;;;;4973316;28;20059;-64
2022/02/26 02:28:38;;;;;;;5.53;1.25;;;;;;;;;;4973256;28;20047;-64
2022/02/26 02:31:10;;;;;;;4.22;1.00;;;;;;;;;;4941432;28;20544;-64
2022/02/26 02:33:45;;;;;;;1.65;1.13;;;;;;;;;;4905613;29;20457;-64
2022/02/26 02:36:22;;;;;;;5.53;1.20;;;;;;;;;;4953613;29;20455;-64
2022/02/26 02:38:54;;;;;;;2.50;1.20;;;;;;;;;;4953773;29;20082;-64
2022/02/26 02:41:24;;;;;;;7.13;1.83;;;;;;;;;;4953770;29;20423;-64
2022/02/26 02:43:57;;;;;;;5.82;1.50;;;;;;;;;;4953172;29;20055;-63
2022/02/26 02:46:34;;;;;;;4.68;1.50;;;;;;;;;;4921929;29;20056;-64
2022/02/26 02:49:06;;;;;;;5.40;1.38;;;;;;;;;;4953691;29;20070;-64
2022/02/26 02:51:36;;;;;;;3.88;1.60;;;;;;;;;;4921914;29;20051;-64
2022/02/26 02:54:09;;;;;;;2.80;1.52;;;;;;;;;;4953270;29;20055;-64
2022/02/26 02:56:41;;;;;;;4.00;1.48;;;;;;;;;;4921819;29;20055;-64
2022/02/26 02:59:12;;;;;;;7.22;1.30;;;;;;;;;;4930458;29;20058;-64
2022/02/26 03:01:43;;;;;;;3.85;1.40;;;;;;;;;;4853378;29;20063;-64
2022/02/26 03:04:15;;;;;;;6.25;1.75;;;;;;;;;;4867950;29;20448;-64
2022/02/26 03:06:49;;;;;;;13.38;1.80;;;;;;;;;;4914888;29;20405;-64
2022/02/26 03:09:19;;;;;;;9.88;1.60;;;;;;;;;;4915084;29;20532;-64
2022/02/26 03:11:49;;;;;;;8.45;2.20;;;;;;;;;;4942117;29;20530;-65
2022/02/26 03:14:20;;;;;;;7.82;2.63;;;;;;;;;;4936923;28;20058;-64
2022/02/26 03:16:52;;;;;;;7.75;3.03;;;;;;;;;;4972145;28;20047;-64
2022/02/26 03:19:27;;;;;;;6.53;2.60;;;;;;;;;;4972360;28;20157;-64
2022/02/26 03:21:57;;;;;;;5.97;2.50;;;;;;;;;;4952099;28;20635;-64
2022/02/26 03:24:27;;;;;;;12.82;3.15;;;;;;;;;;4912967;29;20075;-65
2022/02/26 03:26:58;;;;;;;7.95;2.67;;;;;;;;;;4895728;29;20489;-64
2022/02/26 03:29:34;;;;;;;8.35;2.45;;;;;;;;;;4895970;29;20406;-64
2022/02/26 03:32:07;;;;;;;5.80;2.35;;;;;;;;;;4895712;29;20061;-64
2022/02/26 03:34:41;;;;;;;7.50;2.60;;;;;;;;;;4880388;29;20425;-65
2022/02/26 03:37:11;;;;;;;6.35;2.35;;;;;;;;;;4926304;29;20064;-64
2022/02/26 03:39:46;;;;;;;7.50;2.03;;;;;;;;;;4895591;29;20056;-64
2022/02/26 03:42:16;;;;;;;11.13;2.00;;;;;;;;;;4857933;29;20049;-64
2022/02/26 03:44:48;;;;;;;5.50;1.80;;;;;;;;;;4858316;29;20069;-64
2022/02/26 03:47:20;;;;;;;10.18;1.90;;;;;;;;;;4839552;29;20073;-64
2022/02/26 03:49:54;;;;;;;6.22;1.63;;;;;;;;;;4839842;29;20065;-64
2022/02/26 03:52:25;;;;;;;12.95;1.80;;;;;;;;;;4839606;29;20535;-64
2022/02/26 03:55:02;;;;;;;3.25;1.55;;;;;;;;;;4839786;29;20065;-64
2022/02/26 03:57:33;;;;;;;3.58;1.77;;;;;;;;;;4855400;29;20065;-64
2022/02/26 04:00:09;;;;;;;3.38;1.70;;;;;;;;;;4871172;29;20064;-64
2022/02/26 04:02:40;;;;;;;7.65;2.10;;;;;;;;;;4875802;29;20060;-64
2022/02/26 04:05:14;;;;;;;5.30;1.63;;;;;;;;;;4901320;29;20052;-64
2022/02/26 04:07:45;;;;;;;3.60;1.63;;;;;;;;;;4901891;29;20060;-64
2022/02/26 04:10:17;;;;;;;6.28;1.80;;;;;;;;;;4914102;29;20056;-64
2022/02/26 04:12:48;;;;;;;5.13;2.15;;;;;;;;;;4894803;29;20055;-64
2022/02/26 04:15:21;;;;;;;4.07;1.98;;;;;;;;;;4894518;29;20053;-64
2022/02/26 04:17:51;;;;;;;3.50;1.70;;;;;;;;;;4898429;29;20064;-64
2022/02/26 04:20:22;;;;;;;4.05;2.15;;;;;;;;;;4924957;29;20059;-64
2022/02/26 04:22:54;;;;;;;4.05;2.05;;;;;;;;;;4970783;28;20051;-64
2022/02/26 04:25:26;;;;;;;4.85;2.10;;;;;;;;;;4951878;28;20054;-64
2022/02/26 04:27:56;;;;;;;4.72;2.08;;;;;;;;;;4989585;28;20058;-64
2022/02/26 04:30:27;;;;;;;5.75;2.42;;;;;;;;;;4942232;28;20442;-65
2022/02/26 04:32:58;;;;;;;10.52;2.60;;;;;;;;;;4970495;28;20530;-65
2022/02/26 04:35:31;;;;;;;9.00;3.17;;;;;;;;;;4939268;28;20120;-64
2022/02/26 04:38:01;;;;;;;6.57;3.50;;;;;;;;;;4961948;28;20397;-64
2022/02/26 04:40:33;;;;;;;9.75;2.47;;;;;;;;;;4951607;29;20432;-65
2022/02/26 04:43:06;;;;;;;6.88;2.50;;;;;;;;;;4951506;29;20174;-64
2022/02/26 04:45:36;;;;;;;5.85;2.40;;;;;;;;;;4951119;29;20451;-65
2022/02/26 04:48:06;;;;;;;14.73;2.55;;;;;;;;;;4957404;28;20063;-64
2022/02/26 04:50:36;;;;;;;7.90;2.58;;;;;;;;;;4959710;28;20059;-64
2022/02/26 04:53:10;;;;;;;8.43;3.05;;;;;;;;;;4962058;28;20062;-64
2022/02/26 04:55:42;;;;;;;7.35;2.58;;;;;;;;;;4970801;28;20051;-64
2022/02/26 04:58:12;;;;;;;7.63;2.63;;;;;;;;;;4973982;28;20077;-65
2022/02/26 05:00:42;;;;;;;9.88;2.40;;;;;;;;;;4989958;28;20050;-64
2022/02/26 05:03:12;;;;;;;9.55;2.40;;;;;;;;;;4992487;28;20050;-65
2022/02/26 05:05:44;;;;;;;11.05;2.15;;;;;;;;;;5011787;28;20050;-64
2022/02/26 05:08:14;;;;;;;6.45;2.63;;;;;;;;;;5012180;28;20049;-65
2022/02/26 05:10:45;;;;;;;9.00;2.90;;;;;;;;;;5031461;28;20049;-64
2022/02/26 05:13:15;;;;;;;13.75;2.22;;;;;;;;;;5031518;28;20045;-64
2022/02/26 05:15:48;;;;;;;8.23;2.53;;;;;;;;;;5031505;28;20053;-65
2022/02/26 05:18:21;;;;;;;7.82;2.13;;;;;;;;;;4965313;28;20057;-64
2022/02/26 05:20:54;;;;;;;11.10;2.30;;;;;;;;;;5011624;28;20041;-64
2022/02/26 05:23:24;;;;;;;5.82;1.95;;;;;;;;;;4954096;28;20054;-65
2022/02/26 05:25:55;;;;;;;8.13;1.92;;;;;;;;;;4953762;28;20058;-65
2022/02/26 05:28:27;;;;;;;8.75;1.75;;;;;;;;;;4970013;28;20611;-64
2022/02/26 05:30:59;;;;;;;3.17;1.63;;;;;;;;;;4971217;28;20054;-65
2022/02/26 05:33:35;;;;;;;3.95;1.55;;;;;;;;;;4989375;28;20528;-65
2022/02/26 05:36:07;;;;;;;;;;;;;;;;;;4989798;28;20554;-65
2022/02/26 05:38:37;;;;;;;5.20;1.60;;;;;;;;;;4950600;28;19938;-65
2022/02/26 05:41:08;;;;;;;5.75;1.63;;;;;;;;;;4935261;28;20103;-64
2022/02/26 05:43:38;;;;;;;6.75;1.75;;;;;;;;;;4931363;29;20546;-64
2022/02/26 05:46:10;;;;;;;9.63;2.03;;;;;;;;;;4931382;28;20059;-65
2022/02/26 05:48:42;;;;;;;4.90;1.52;;;;;;;;;;4912077;29;20068;-65
2022/02/26 05:51:15;;;;;;;3.05;1.65;;;;;;;;;;4911959;29;20420;-64
2022/02/26 05:53:45;;;;;;;3.45;1.70;;;;;;;;;;4912299;29;20183;-64
2022/02/26 05:56:17;;;;;;;17.27;2.13;;;;;;;;;;4896919;29;20068;-64
2022/02/26 05:58:49;;;;;;;13.23;2.40;;;;;;;;;;4927885;29;20531;-65
2022/02/26 06:01:20;;;;;;;6.85;2.00;;;;;;;;;;4919507;29;20106;-65
2022/02/26 06:03:50;;;;;;;6.10;2.00;;;;;;;;;;4918848;29;20128;-64
2022/02/26 06:06:24;;;;;;;7.47;2.40;;;;;;;;;;4930916;29;20055;-65
2022/02/26 06:08:54;;;;;;;7.32;2.25;;;;;;;;;;4930970;29;20063;-65
2022/02/26 06:11:25;;;;;;;;;;;;;;;;;;4940252;29;20059;-65
2022/02/26 06:13:55;;;;;;;28.02;2.65;;;;;;;;;;4918079;29;20350;-65
2022/02/26 06:16:30;;;;;;;55.10;2.83;;;;;;;;;;4974063;28;20070;-65
2022/02/26 06:19:02;;;;;;;27.77;2.08;;;;;;;;;;4950276;29;20055;-65
2022/02/26 06:21:33;;;;;;;;;;;;;;;;;;4927210;29;20060;-65
2022/02/26 06:24:03;;;;;;;10.18;1.50;;;;;;;;;;4911926;29;20375;-65
2022/02/26 06:26:34;;;;;;;4.20;1.50;;;;;;;;;;4900904;29;20063;-65
2022/02/26 06:29:10;;;;;;;18.23;1.45;;;;;;;;;;4893109;29;20061;-64
2022/02/26 06:31:40;;;;;;;16.05;1.48;;;;;;;;;;4892856;29;20052;-65
2022/02/26 06:34:10;;;;;;;16.05;1.58;;;;;;;;;;4861940;29;20061;-65
2022/02/26 06:36:41;;;;;;;8.02;1.58;;;;;;;;;;4897192;29;20059;-65
2022/02/26 06:39:14;;;;;;;4.65;1.50;;;;;;;;;;4911833;29;20068;-65
2022/02/26 06:41:48;;;;;;;5.60;1.40;;;;;;;;;;4864539;29;20057;-65
2022/02/26 06:44:18;;;;;;;5.38;1.40;;;;;;;;;;4888855;29;20064;-64
2022/02/26 06:46:49;;;;;;;21.77;2.35;;;;;;;;;;4912166;29;20056;-65
2022/02/26 06:49:21;;;;;;;6.25;1.33;;;;;;;;;;4912054;29;20060;-65
2022/02/26 06:51:51;;;;;;;9.68;1.50;;;;;;;;;;4912552;29;20044;-65
2022/02/26 06:54:22;;;;;;;9.32;2.15;;;;;;;;;;4936648;28;20086;-65
2022/02/26 06:56:53;;;;;;;7.47;1.45;;;;;;;;;;4982544;28;20064;-65
2022/02/26 06:59:24;;;;;;;14.77;1.90;;;;;;;;;;4992345;28;20054;-65
2022/02/26 07:01:56;;;;;;;23.20;1.70;;;;;;;;;;4992207;28;20050;-64
2022/02/26 07:04:29;;;;;;;15.35;1.65;;;;;;;;;;4970880;28;20128;-64
2022/02/26 07:07:02;;;;;;;15.52;2.17;;;;;;;;;;4968512;28;20050;-65
2022/02/26 07:09:32;;;;;;;4.93;1.40;;;;;;;;;;4991959;28;20063;-65
2022/02/26 07:12:06;;;;;;;7.75;1.58;;;;;;;;;;4991935;28;20054;-65
2022/02/26 07:14:38;;;;;;;7.05;1.42;;;;;;;;;;4975366;28;20090;-65
2022/02/26 07:17:08;;;;;;;15.15;2.15;;;;;;;;;;4972382;28;20059;-64
2022/02/26 07:19:45;;;;;;;10.05;2.05;;;;;;;;;;4972341;28;20451;-65
2022/02/26 07:22:16;;;;;;;5.68;1.50;;;;;;;;;;4956613;28;20059;-65
2022/02/26 07:24:49;;;;;;;7.80;1.85;;;;;;;;;;4940307;28;20058;-64
2022/02/26 07:27:19;;;;;;;16.25;2.00;;;;;;;;;;4956008;28;20062;-64
2022/02/26 07:29:51;;;;;;;5.25;1.23;;;;;;;;;;4972226;28;20059;-64
2022/02/26 07:32:24;;;;;;;8.70;1.40;;;;;;;;;;4940419;28;20062;-65
2022/02/26 07:34:54;;;;;;;11.95;1.85;;;;;;;;;;4956427;28;20059;-64
2022/02/26 07:37:24;;;;;;;4.40;1.40;;;;;;;;;;4939773;28;20515;-64
2022/02/26 07:39:57;;;;;;;9.93;1.80;;;;;;;;;;4972109;28;20403;-64
2022/02/26 07:42:29;;;;;;;3.92;1.60;;;;;;;;;;4998931;28;20062;-64
2022/02/26 07:45:01;;;;;;;2.90;1.58;;;;;;;;;;4966025;28;20055;-65
2022/02/26 07:47:35;;;;;;;4.88;1.90;;;;;;;;;;4960483;28;20538;-64
2022/02/26 07:50:06;;;;;;;2.55;1.58;;;;;;;;;;4991111;28;20058;-64
2022/02/26 07:52:40;;;;;;;4.97;1.95;;;;;;;;;;4991459;28;20046;-64
2022/02/26 07:55:10;;;;;;;10.90;1.83;;;;;;;;;;4962949;28;20050;-64
2022/02/26 07:57:43;;;;;;;11.45;1.48;;;;;;;;;;4952697;28;20471;-66
2022/02/26 08:00:14;;;;;;;11.15;1.60;;;;;;;;;;4952256;28;20065;-64
2022/02/26 08:02:45;;;;;;;6.13;1.55;;;;;;;;;;4952577;28;20060;-65
2022/02/26 08:05:17;;;;;;;12.15;1.27;;;;;;;;;;4911191;28;20061;-65
2022/02/26 08:07:49;;;;;;;10.57;1.73;;;;;;;;;;4951478;28;20051;-65
2022/02/26 08:10:22;;;;;;;13.55;2.15;;;;;;;;;;4952230;29;20205;-65
2022/02/26 08:12:57;;;;;;;17.48;1.92;;;;;;;;;;4936811;29;20051;-65
2022/02/26 08:15:30;;;;;;;33.00;1.92;;;;;;;;;;4904793;29;20055;-65
2022/02/26 08:18:05;;;;;;;53.72;3.45;;;;;;;;;;4951899;29;20055;-64
2022/02/26 08:20:35;;;;;;;18.13;1.50;;;;;;;;;;4951663;29;20415;-64
2022/02/26 08:23:09;;;;;;;38.83;2.97;;;;;;;;;;4919425;28;20059;-65
2022/02/26 08:25:42;;;;;;;122.43;3.72;;;;;;;;;;4970261;28;20055;-64
2022/02/26 08:28:15;;;;;;;51.30;3.10;;;;;;;;;;4951790;29;20055;-65
2022/02/26 08:30:45;;;;;;;95.50;3.55;;;;;;;;;;4951625;29;20055;-65
2022/02/26 08:33:16;;;;;;;6.65;1.67;;;;;;;;;;4926315;29;20056;-65
2022/02/26 08:35:47;;;;;;;7.00;2.00;;;;;;;;;;4932263;29;20070;-65
2022/02/26 08:38:18;;;;;;;25.42;2.58;;;;;;;;;;4898893;29;20056;-65
2022/02/26 08:40:48;;;;;;;24.08;2.50;;;;;;;;;;4932448;29;20060;-64
2022/02/26 08:43:21;;;;;;;45.67;3.75;;;;;;;;;;4894578;29;20049;-64
2022/02/26 08:45:52;;;;;;;13.88;2.05;;;;;;;;;;4912863;29;20056;-64
2022/02/26 08:48:24;;;;;;;3.97;1.90;;;;;;;;;;4913345;29;20625;-64
2022/02/26 08:50:54;;;;;;;11.23;2.35;;;;;;;;;;4913379;29;20060;-64
2022/02/26 08:53:26;;;;;;;11.10;1.88;;;;;;;;;;4912972;29;20064;-64
2022/02/26 08:55:57;;;;;;;8.15;2.17;;;;;;;;;;4912615;29;20420;-64
2022/02/26 08:58:29;;;;;;;21.63;1.98;;;;;;;;;;4913071;29;20067;-64
2022/02/26 09:00:59;;;;;;;17.50;2.90;;;;;;;;;;4913042;29;20068;-64
2022/02/26 09:03:30;;;;;;;17.63;1.92;;;;;;;;;;4881800;29;20068;-64
2022/02/26 09:06:01;;;;;;;12.93;1.45;;;;;;;;;;4923834;29;20059;-64
2022/02/26 09:08:32;;;;;;;15.70;1.90;;;;;;;;;;4900417;29;20063;-64
2022/02/26 09:11:02;;;;;;;12.82;1.52;;;;;;;;;;4931692;29;20056;-64
2022/02/26 09:13:40;;;;;;;4.88;1.80;;;;;;;;;;4931825;29;20078;-64
2022/02/26 09:16:15;;;;;;;17.55;1.90;;;;;;;;;;4920759;29;20072;-64
2022/02/26 09:18:48;;;;;;;7.88;1.70;;;;;;;;;;4896432;29;20409;-64
2022/02/26 09:21:19;;;;;;;15.35;2.08;;;;;;;;;;4924476;29;20416;-65
2022/02/26 09:23:51;;;;;;;11.85;2.42;;;;;;;;;;4932170;29;20055;-64
2022/02/26 09:26:22;;;;;;;7.10;1.77;;;;;;;;;;4921899;29;20067;-65
2022/02/26 09:28:52;;;;;;;35.42;1.92;;;;;;;;;;4943784;29;20055;-65
2022/02/26 09:31:23;;;;;;;17.42;1.80;;;;;;;;;;4934994;29;20160;-65
2022/02/26 09:33:53;;;;;;;7.65;2.22;;;;;;;;;;4950824;29;20070;-65
2022/02/26 09:36:25;;;;;;;17.95;2.42;;;;;;;;;;4957303;28;20419;-65
2022/02/26 09:38:56;;;;;;;27.98;2.45;;;;;;;;;;4938161;28;20423;-65
2022/02/26 09:41:28;;;;;;;10.77;2.00;;;;;;;;;;4950463;29;20048;-64
2022/02/26 09:44:00;;;;;;;12.80;2.70;;;;;;;;;;4950392;29;20594;-65
2022/02/26 09:46:34;;;;;;;6.13;2.20;;;;;;;;;;4935138;29;20564;-65
2022/02/26 09:49:08;;;;;;;6.30;2.00;;;;;;;;;;4906370;29;20053;-65
2022/02/26 09:51:44;;;;;;;5.05;1.90;;;;;;;;;;4912442;29;20580;-65
2022/02/26 09:54:16;;;;;;;19.05;1.85;;;;;;;;;;4865915;29;20398;-65
2022/02/26 09:56:49;;;;;;;13.90;1.95;;;;;;;;;;4896867;29;20476;-65
2022/02/26 09:59:20;;;;;;;10.25;2.22;;;;;;;;;;4912276;29;20071;-65
2022/02/26 10:02:06;;;;;;;22.23;1.88;;;;;;;;;;4866457;29;20433;-65
2022/02/26 10:04:39;;;;;;;43.90;4.78;;;;;;;;;;4893471;29;20061;-65
2022/02/26 10:07:21;;;;;;;24.40;2.15;;;;;;;;;;4864065;29;20056;-65
2022/02/26 10:09:55;;;;;;;9.98;1.80;;;;;;;;;;4911872;29;20104;-64
2022/02/26 10:12:33;;;;;;;12.38;2.45;;;;;;;;;;4912467;29;20061;-64
2022/02/26 10:15:06;;;;;;;2.97;1.60;;;;;;;;;;4874463;29;20165;-65
2022/02/26 10:17:42;;;;;;;5.40;1.63;;;;;;;;;;4830328;29;20417;-65
2022/02/26 10:20:16;;;;;;;12.82;1.90;;;;;;;;;;4874632;29;20081;-65
2022/02/26 10:22:56;;;;;;;5.70;1.77;;;;;;;;;;4912193;29;20048;-65
2022/02/26 10:25:29;;;;;;;3.42;1.88;;;;;;;;;;4912693;28;20056;-65
2022/02/26 10:28:05;;;;;;;7.40;1.80;;;;;;;;;;4971989;28;20051;-65
2022/02/26 10:30:40;;;;;;;44.13;3.00;;;;;;;;;;4989636;28;20054;-64
2022/02/26 10:33:12;;;;;;;4.30;2.13;;;;;;;;;;4976641;28;20054;-65
2022/02/26 10:35:47;;;;;;;2.88;1.52;;;;;;;;;;4976816;28;20514;-65
2022/02/26 10:38:23;;;;;;;3.80;1.83;;;;;;;;;;4987758;28;20605;-65
2022/02/26 10:41:06;;;;;;;9.50;1.98;;;;;;;;;;4953288;29;20066;-65
2022/02/26 10:43:38;;;;;;;18.08;3.20;;;;;;;;;;4921742;29;20058;-65
2022/02/26 10:46:33;;;;;;;21.85;3.30;;;;;;;;;;4934321;29;20680;-64
2022/02/26 10:49:12;;;;;;;14.65;3.85;;;;;;;;;;4918767;29;20052;-65
2022/02/26 10:51:45;;;;;;;10.88;4.07;;;;;;;;;;4934365;29;20171;-65
2022/02/26 10:54:24;;;;;;;17.38;5.47;;;;;;;;;;4934594;29;20055;-65
2022/02/26 10:57:04;;;;;;;22.10;3.15;;;;;;;;;;4934255;29;20059;-65
2022/02/26 10:59:44;;;;;;;45.13;5.38;;;;;;;;;;4953177;29;20161;-65
2022/02/26 11:02:21;;;;;;;40.45;4.35;;;;;;;;;;4956295;28;20055;-64
2022/02/26 11:04:57;;;;;;;35.67;3.83;;;;;;;;;;4940629;28;20055;-64
2022/02/26 11:07:30;;;;;;;27.73;4.72;;;;;;;;;;4972424;28;20061;-65
2022/02/26 11:10:01;;;;;;;28.05;4.55;;;;;;;;;;4921351;29;20062;-64
2022/02/26 11:12:32;;;;;;;24.25;4.70;;;;;;;;;;4953317;29;20063;-65
2022/02/26 11:15:08;;;;;;;35.63;5.82;;;;;;;;;;4938257;29;20098;-65
2022/02/26 11:17:43;;;;;;;25.38;6.03;;;;;;;;;;4971026;28;20058;-65
2022/02/26 11:20:18;;;;;;;19.98;6.07;;;;;;;;;;5014199;28;20053;-65
2022/02/26 11:22:48;;;;;;;21.52;6.95;;;;;;;;;;5013717;28;20055;-65
2022/02/26 11:25:20;;;;;;;19.50;7.03;;;;;;;;;;5013550;28;20114;-65
2022/02/26 11:27:54;;;;;;;21.95;7.85;;;;;;;;;;5013712;28;20053;-65
2022/02/26 11:30:37;;;;;;;21.83;7.95;;;;;;;;;;4979281;28;20058;-64
2022/02/26 11:33:08;;;;;;;25.33;8.68;;;;;;;;;;5013815;28;20041;-64
2022/02/26 11:35:58;;;;;;;28.13;10.13;;;;;;;;;;4979561;28;20042;-65
2022/02/26 11:38:34;;;;;;;32.15;10.85;;;;;;;;;;5013207;28;20050;-65
2022/02/26 11:41:33;;;;;;;29.15;10.45;;;;;;;;;;5013481;28;20049;-65
2022/02/26 11:44:03;;;;;;;30.05;10.27;;;;;;;;;;5012998;28;20061;-65
2022/02/26 11:46:39;;;;;;;29.50;10.50;;;;;;;;;;4991206;28;20054;-65
2022/02/26 11:49:19;;;;;;;26.65;10.02;;;;;;;;;;4992063;28;20046;-65
2022/02/26 11:51:53;;;;;;;25.30;8.75;;;;;;;;;;5010946;28;20061;-65
2022/02/26 11:54:26;;;;;;;22.55;8.75;;;;;;;;;;4990939;28;20407;-65
2022/02/26 11:56:58;;;;;;;21.95;8.45;;;;;;;;;;4975409;28;20081;-65
2022/02/26 11:59:41;;;;;;;;;;;;;;;;;;4991456;28;20058;-65
2022/02/26 12:02:16;;;;;;;29.08;10.98;;;;;;;;;;4939695;28;19926;-65
2022/02/26 12:04:58;;;;;;;24.45;8.90;;;;;;;;;;4971841;28;20055;-65
2022/02/26 12:07:42;;;;;;;23.20;9.15;;;;;;;;;;4971518;28;20054;-64
2022/02/26 12:10:13;;;;;;;28.70;10.63;;;;;;;;;;4954229;28;20070;-63
2022/02/26 12:12:51;;;;;;;32.33;11.52;;;;;;;;;;4955292;28;20054;-64
2022/02/26 12:15:23;;;;;;;26.17;10.23;;;;;;;;;;4971688;28;20070;-64
2022/02/26 12:18:12;;;;;;;27.27;10.27;;;;;;;;;;4951719;29;20055;-63
2022/02/26 12:20:59;;;;;;;28.35;10.38;;;;;;;;;;4903805;29;20067;-64
2022/02/26 12:23:30;;;;;;;28.73;10.73;;;;;;;;;;4948459;29;20063;-64
2022/02/26 12:26:03;;;;;;;24.13;8.77;;;;;;;;;;4913858;29;20524;-63
2022/02/26 12:28:34;;;;;;;21.45;8.82;;;;;;;;;;4913852;29;20048;-63
2022/02/26 12:31:09;;;;;;;22.23;9.15;;;;;;;;;;4884259;29;20052;-63
2022/02/26 12:33:48;;;;;;;27.63;10.43;;;;;;;;;;4945048;28;20086;-63
2022/02/26 12:36:19;;;;;;;23.70;10.00;;;;;;;;;;4933559;28;20058;-63
2022/02/26 12:38:52;;;;;;;23.85;9.95;;;;;;;;;;4916706;29;20051;-63
2022/02/26 12:41:31;;;;;;;23.08;9.00;;;;;;;;;;4913240;29;20056;-63
2022/02/26 12:44:06;;;;;;;21.88;9.10;;;;;;;;;;4913769;29;20052;-62
2022/02/26 12:46:38;;;;;;;16.55;6.70;;;;;;;;;;4914831;29;20521;-62
2022/02/26 12:49:08;;;;;;;15.82;8.13;;;;;;;;;;4932376;29;20444;-63
2022/02/26 12:51:43;;;;;;;18.38;8.80;;;;;;;;;;4932204;29;20068;-62
2022/02/26 12:54:14;;;;;;;25.23;11.38;;;;;;;;;;4900901;29;20198;-62
2022/02/26 12:56:46;;;;;;;28.50;13.77;;;;;;;;;;4932234;28;20160;-62
2022/02/26 12:59:19;;;;;;;47.35;19.63;;;;;;;;;;4922861;28;20065;-62
2022/02/26 13:01:52;;;;;;;42.13;18.25;;;;;;;;;;4940281;28;20066;-62
2022/02/26 13:04:30;;;;;;;52.63;30.42;;;;;;;;;;4973033;28;20077;-62
2022/02/26 13:07:08;;;;;;;42.83;24.13;;;;;;;;;;4957728;28;20406;-62
2022/02/26 13:09:51;;;;;;;;;;;;;;;;;;4990351;28;20038;-62
2022/02/26 13:12:34;;;;;;;34.75;14.57;;;;;;;;;;4989896;28;19921;-63
2022/02/26 13:15:12;;;;;;;26.70;12.30;;;;;;;;;;4929975;28;20054;-62
2022/02/26 13:17:49;;;;;;;28.98;12.25;;;;;;;;;;4970144;28;20050;-62
2022/02/26 13:20:26;;;;;;;16.48;7.88;;;;;;;;;;4942052;28;20071;-62
2022/02/26 13:23:00;;;;;;;17.70;9.02;;;;;;;;;;4989150;28;20058;-62
2022/02/26 13:25:37;;;;;;;16.95;7.05;;;;;;;;;;4973264;28;20058;-63
2022/02/26 13:28:10;;;;;;;13.40;6.10;;;;;;;;;;4989535;28;20050;-62
2022/02/26 13:30:45;;;;;;;13.63;6.68;;;;;;;;;;4974039;28;20046;-63
2022/02/26 13:33:21;;;;;;;14.35;5.57;;;;;;;;;;4989139;28;20046;-63
2022/02/26 13:35:55;;;;;;;11.27;5.88;;;;;;;;;;4950764;29;20058;-63
2022/02/26 13:38:28;;;;;;;8.70;5.18;;;;;;;;;;4950407;29;20706;-62
2022/02/26 13:40:58;;;;;;;10.27;6.18;;;;;;;;;;4950739;29;20062;-63
2022/02/26 13:43:37;;;;;;;7.15;4.18;;;;;;;;;;4903348;29;20086;-63
2022/02/26 13:46:21;;;;;;;9.20;4.10;;;;;;;;;;4950639;29;20519;-63
2022/02/26 13:48:52;;;;;;;8.38;5.03;;;;;;;;;;4903606;29;20051;-63
2022/02/26 13:51:31;;;;;;;10.43;3.90;;;;;;;;;;4908729;29;20409;-62
2022/02/26 13:54:15;;;;;;;9.13;4.30;;;;;;;;;;4855446;29;20549;-63
2022/02/26 13:56:46;;;;;;;6.03;3.70;;;;;;;;;;4828608;29;20065;-63
2022/02/26 13:59:17;;;;;;;8.38;3.90;;;;;;;;;;4843810;29;20574;-63
2022/02/26 14:01:52;;;;;;;8.35;3.92;;;;;;;;;;4856040;29;20053;-63
2022/02/26 14:04:29;;;;;;;6.28;3.63;;;;;;;;;;4826814;29;20065;-63
2022/02/26 14:07:00;;;;;;;6.53;3.38;;;;;;;;;;4795548;29;20535;-62
2022/02/26 14:09:30;;;;;;;6.45;3.70;;;;;;;;;;4841660;29;20069;-63
2022/02/26 14:12:02;;;;;;;;;;;;;;;;;;4856854;29;20441;-63
2022/02/26 14:14:35;;;;;;;5.50;3.45;;;;;;;;;;4858793;29;19924;-63
2022/02/26 14:17:19;;;;;;;5.88;3.67;;;;;;;;;;4877183;29;20057;-63
2022/02/26 14:20:00;;;;;;;5.95;3.10;;;;;;;;;;4878746;29;20072;-63
2022/02/26 14:22:35;;;;;;;8.50;3.15;;;;;;;;;;4878825;29;20192;-63
2022/02/26 14:25:09;;;;;;;9.32;3.10;;;;;;;;;;4878698;29;20061;-63
2022/02/26 14:27:49;;;;;;;6.82;3.13;;;;;;;;;;4825262;29;20058;-63
2022/02/26 14:30:24;;;;;;;8.65;3.15;;;;;;;;;;4874160;29;20064;-63
2022/02/26 14:32:57;;;;;;;4.80;2.28;;;;;;;;;;4897131;29;20056;-62
2022/02/26 14:35:28;;;;;;;4.25;1.92;;;;;;;;;;4905966;29;20063;-62
2022/02/26 14:38:00;;;;;;;5.30;3.30;;;;;;;;;;4917798;29;20432;-63
2022/02/26 14:40:32;;;;;;;6.55;2.92;;;;;;;;;;4952762;29;20063;-63
2022/02/26 14:43:06;;;;;;;5.95;2.22;;;;;;;;;;4916110;29;20060;-63
2022/02/26 14:45:40;;;;;;;4.18;2.53;;;;;;;;;;4869971;29;20071;-63
2022/02/26 14:48:15;;;;;;;4.18;2.35;;;;;;;;;;4932648;29;20048;-63
2022/02/26 14:50:45;;;;;;;4.25;2.47;;;;;;;;;;4915453;29;20056;-63
2022/02/26 14:53:16;;;;;;;5.90;2.17;;;;;;;;;;4915858;29;20060;-63
2022/02/26 14:55:50;;;;;;;4.25;2.10;;;;;;;;;;4915421;29;20072;-62
2022/02/26 14:58:24;;;;;;;6.13;1.95;;;;;;;;;;4881178;29;20060;-63
2022/02/26 15:00:56;;;;;;;5.18;2.30;;;;;;;;;;4880735;29;20064;-63
2022/02/26 15:03:28;;;;;;;4.72;1.88;;;;;;;;;;4859013;29;20073;-63
2022/02/26 15:05:59;;;;;;;2.88;2.00;;;;;;;;;;4887129;29;20053;-63
2022/02/26 15:08:32;;;;;;;2.70;1.85;;;;;;;;;;4895919;29;20056;-62
2022/02/26 15:11:03;;;;;;;3.22;2.03;;;;;;;;;;4880700;29;20056;-62
2022/02/26 15:13:34;;;;;;;3.33;1.90;;;;;;;;;;4892464;29;20537;-63
2022/02/26 15:16:10;;;;;;;4.53;1.83;;;;;;;;;;4862406;29;20068;-63